sensor_id;sensor_type;location;lat;lon;timestamp;P1;durP1;ratioP1;P2;durP2;ratioP2
68273;SDS011;55104;47.356;19.448;2023-05-18T00:01:34;2.33;;;0.75;;
68273;SDS011;55104;47.356;19.448;2023-05-18T00:04:41;1.40;;;0.50;;
68273;SDS011;55104;47.356;19.448;2023-05-18T00:07:44;1.20;;;0.30;;
68273;SDS011;55104;47.356;19.448;2023-05-18T00:10:47;2.38;;;0.50;;
68273;SDS011;55104;47.356;19.448;2023-05-18T00:13:49;2.60;;;0.50;;
68273;SDS011;55104;47.356;19.448;2023-05-18T00:16:51;3.10;;;0.43;;
68273;SDS011;55104;47.356;19.448;2023-05-18T00:19:56;3.13;;;0.70;;
68273;SDS011;55104;47.356;19.448;2023-05-18T00:22:59;1.67;;;0.40;;
68273;SDS011;55104;47.356;19.448;2023-05-18T00:26:01;1.88;;;0.30;;
68273;SDS011;55104;47.356;19.448;2023-05-18T00:29:03;1.43;;;0.40;;
68273;SDS011;55104;47.356;19.448;2023-05-18T00:32:06;1.65;;;0.50;;
68273;SDS011;55104;47.356;19.448;2023-05-18T00:35:10;1.35;;;0.30;;
68273;SDS011;55104;47.356;19.448;2023-05-18T00:38:12;1.52;;;0.47;;
68273;SDS011;55104;47.356;19.448;2023-05-18T00:41:18;3.47;;;0.50;;
68273;SDS011;55104;47.356;19.448;2023-05-18T00:44:20;2.33;;;0.40;;
68273;SDS011;55104;47.356;19.448;2023-05-18T00:47:22;2.90;;;0.70;;
68273;SDS011;55104;47.356;19.448;2023-05-18T00:50:24;1.58;;;0.40;;
68273;SDS011;55104;47.356;19.448;2023-05-18T00:53:26;2.28;;;0.50;;
68273;SDS011;55104;47.356;19.448;2023-05-18T00:56:29;1.55;;;0.32;;
68273;SDS011;55104;47.356;19.448;2023-05-18T00:59:34;2.57;;;0.50;;
68273;SDS011;55104;47.356;19.448;2023-05-18T01:02:37;1.23;;;0.35;;
68273;SDS011;55104;47.356;19.448;2023-05-18T01:05:43;2.30;;;0.50;;
68273;SDS011;55104;47.356;19.448;2023-05-18T01:08:45;1.52;;;0.38;;
68273;SDS011;55104;47.356;19.448;2023-05-18T01:15:17;0.50;;;0.20;;
68273;SDS011;55104;47.356;19.448;2023-05-18T01:18:30;2.08;;;0.40;;
68273;SDS011;55104;47.356;19.448;2023-05-18T01:25:28;1.85;;;0.30;;
68273;SDS011;55104;47.356;19.448;2023-05-18T01:28:35;1.83;;;0.30;;
68273;SDS011;55104;47.356;19.448;2023-05-18T01:31:37;1.33;;;0.30;;
68273;SDS011;55104;47.356;19.448;2023-05-18T01:34:40;1.95;;;0.30;;
68273;SDS011;55104;47.356;19.448;2023-05-18T01:37:42;1.13;;;0.32;;
68273;SDS011;55104;47.356;19.448;2023-05-18T01:44:10;1.80;;;0.40;;
68273;SDS011;55104;47.356;19.448;2023-05-18T01:47:18;0.93;;;0.20;;
68273;SDS011;55104;47.356;19.448;2023-05-18T01:50:21;1.73;;;0.20;;
68273;SDS011;55104;47.356;19.448;2023-05-18T01:53:34;1.13;;;0.20;;
68273;SDS011;55104;47.356;19.448;2023-05-18T01:56:47;2.10;;;0.50;;
68273;SDS011;55104;47.356;19.448;2023-05-18T01:59:52;0.73;;;0.20;;
68273;SDS011;55104;47.356;19.448;2023-05-18T02:02:56;1.60;;;0.30;;
68273;SDS011;55104;47.356;19.448;2023-05-18T02:05:58;6.43;;;0.35;;
68273;SDS011;55104;47.356;19.448;2023-05-18T02:09:01;1.40;;;0.40;;
68273;SDS011;55104;47.356;19.448;2023-05-18T02:12:07;3.42;;;0.30;;
68273;SDS011;55104;47.356;19.448;2023-05-18T02:15:09;1.25;;;0.30;;
68273;SDS011;55104;47.356;19.448;2023-05-18T02:18:11;1.00;;;0.20;;
68273;SDS011;55104;47.356;19.448;2023-05-18T02:21:13;0.50;;;0.10;;
68273;SDS011;55104;47.356;19.448;2023-05-18T02:24:15;0.95;;;0.20;;
68273;SDS011;55104;47.356;19.448;2023-05-18T02:27:20;2.90;;;0.30;;
68273;SDS011;55104;47.356;19.448;2023-05-18T02:30:22;1.40;;;0.20;;
68273;SDS011;55104;47.356;19.448;2023-05-18T02:33:24;1.53;;;0.33;;
68273;SDS011;55104;47.356;19.448;2023-05-18T02:36:27;2.95;;;0.32;;
68273;SDS011;55104;47.356;19.448;2023-05-18T02:39:38;1.63;;;0.30;;
68273;SDS011;55104;47.356;19.448;2023-05-18T02:42:41;2.25;;;0.40;;
68273;SDS011;55104;47.356;19.448;2023-05-18T02:45:44;1.25;;;0.30;;
68273;SDS011;55104;47.356;19.448;2023-05-18T02:48:46;0.40;;;0.20;;
68273;SDS011;55104;47.356;19.448;2023-05-18T02:51:48;2.08;;;0.40;;
68273;SDS011;55104;47.356;19.448;2023-05-18T02:54:50;1.13;;;0.20;;
68273;SDS011;55104;47.356;19.448;2023-05-18T02:58:03;1.52;;;0.35;;
68273;SDS011;55104;47.356;19.448;2023-05-18T03:01:25;3.28;;;0.40;;
68273;SDS011;55104;47.356;19.448;2023-05-18T03:04:28;2.17;;;0.37;;
68273;SDS011;55104;47.356;19.448;2023-05-18T03:07:31;1.08;;;0.30;;
68273;SDS011;55104;47.356;19.448;2023-05-18T03:10:35;1.85;;;0.30;;
68273;SDS011;55104;47.356;19.448;2023-05-18T03:13:38;1.58;;;0.30;;
68273;SDS011;55104;47.356;19.448;2023-05-18T03:16:40;1.48;;;0.30;;
68273;SDS011;55104;47.356;19.448;2023-05-18T03:19:46;1.67;;;0.20;;
68273;SDS011;55104;47.356;19.448;2023-05-18T03:22:49;2.30;;;0.30;;
68273;SDS011;55104;47.356;19.448;2023-05-18T03:25:51;1.35;;;0.30;;
68273;SDS011;55104;47.356;19.448;2023-05-18T03:28:57;1.00;;;0.20;;
68273;SDS011;55104;47.356;19.448;2023-05-18T03:32:00;1.25;;;0.20;;
68273;SDS011;55104;47.356;19.448;2023-05-18T03:35:02;0.63;;;0.10;;
68273;SDS011;55104;47.356;19.448;2023-05-18T03:38:06;1.35;;;0.20;;
68273;SDS011;55104;47.356;19.448;2023-05-18T03:41:10;1.38;;;0.28;;
68273;SDS011;55104;47.356;19.448;2023-05-18T03:44:12;3.22;;;0.40;;
68273;SDS011;55104;47.356;19.448;2023-05-18T03:47:15;1.02;;;0.20;;
68273;SDS011;55104;47.356;19.448;2023-05-18T03:50:18;2.67;;;0.50;;
68273;SDS011;55104;47.356;19.448;2023-05-18T03:53:20;1.83;;;0.47;;
68273;SDS011;55104;47.356;19.448;2023-05-18T03:56:24;1.05;;;0.30;;
68273;SDS011;55104;47.356;19.448;2023-05-18T03:59:26;1.80;;;0.30;;
68273;SDS011;55104;47.356;19.448;2023-05-18T04:02:28;2.35;;;0.40;;
68273;SDS011;55104;47.356;19.448;2023-05-18T04:05:32;2.63;;;0.60;;
68273;SDS011;55104;47.356;19.448;2023-05-18T04:08:34;1.02;;;0.20;;
68273;SDS011;55104;47.356;19.448;2023-05-18T04:11:37;1.08;;;0.20;;
68273;SDS011;55104;47.356;19.448;2023-05-18T04:14:39;2.22;;;0.32;;
68273;SDS011;55104;47.356;19.448;2023-05-18T04:17:44;1.52;;;0.40;;
68273;SDS011;55104;47.356;19.448;2023-05-18T04:20:46;1.03;;;0.30;;
68273;SDS011;55104;47.356;19.448;2023-05-18T04:23:48;1.17;;;0.28;;
68273;SDS011;55104;47.356;19.448;2023-05-18T04:26:50;0.80;;;0.20;;
68273;SDS011;55104;47.356;19.448;2023-05-18T04:29:54;1.08;;;0.30;;
68273;SDS011;55104;47.356;19.448;2023-05-18T04:32:57;0.68;;;0.20;;
68273;SDS011;55104;47.356;19.448;2023-05-18T04:36:01;0.90;;;0.20;;
68273;SDS011;55104;47.356;19.448;2023-05-18T04:39:06;1.63;;;0.40;;
68273;SDS011;55104;47.356;19.448;2023-05-18T04:42:08;1.05;;;0.25;;
68273;SDS011;55104;47.356;19.448;2023-05-18T04:45:14;0.75;;;0.20;;
68273;SDS011;55104;47.356;19.448;2023-05-18T04:48:18;1.15;;;0.30;;
68273;SDS011;55104;47.356;19.448;2023-05-18T04:51:21;1.40;;;0.30;;
68273;SDS011;55104;47.356;19.448;2023-05-18T04:54:23;1.95;;;0.30;;
68273;SDS011;55104;47.356;19.448;2023-05-18T04:57:27;1.70;;;0.30;;
68273;SDS011;55104;47.356;19.448;2023-05-18T05:00:29;0.75;;;0.17;;
68273;SDS011;55104;47.356;19.448;2023-05-18T05:03:32;0.82;;;0.20;;
68273;SDS011;55104;47.356;19.448;2023-05-18T05:06:34;1.17;;;0.20;;
68273;SDS011;55104;47.356;19.448;2023-05-18T05:09:36;0.73;;;0.20;;
68273;SDS011;55104;47.356;19.448;2023-05-18T05:12:39;0.85;;;0.20;;
68273;SDS011;55104;47.356;19.448;2023-05-18T05:15:42;0.55;;;0.20;;
68273;SDS011;55104;47.356;19.448;2023-05-18T05:18:44;0.63;;;0.10;;
68273;SDS011;55104;47.356;19.448;2023-05-18T05:21:48;0.47;;;0.10;;
68273;SDS011;55104;47.356;19.448;2023-05-18T05:24:51;0.93;;;0.20;;
68273;SDS011;55104;47.356;19.448;2023-05-18T05:27:54;0.80;;;0.20;;
68273;SDS011;55104;47.356;19.448;2023-05-18T05:30:57;1.00;;;0.28;;
68273;SDS011;55104;47.356;19.448;2023-05-18T05:33:59;0.80;;;0.20;;
68273;SDS011;55104;47.356;19.448;2023-05-18T05:37:01;1.80;;;0.30;;
68273;SDS011;55104;47.356;19.448;2023-05-18T05:40:03;0.95;;;0.28;;
68273;SDS011;55104;47.356;19.448;2023-05-18T05:43:12;1.33;;;0.38;;
68273;SDS011;55104;47.356;19.448;2023-05-18T05:46:14;1.90;;;0.40;;
68273;SDS011;55104;47.356;19.448;2023-05-18T05:49:17;0.85;;;0.20;;
68273;SDS011;55104;47.356;19.448;2023-05-18T05:52:19;0.93;;;0.20;;
68273;SDS011;55104;47.356;19.448;2023-05-18T05:55:22;1.95;;;0.30;;
68273;SDS011;55104;47.356;19.448;2023-05-18T05:58:25;2.47;;;0.30;;
68273;SDS011;55104;47.356;19.448;2023-05-18T06:01:31;0.77;;;0.20;;
68273;SDS011;55104;47.356;19.448;2023-05-18T06:04:35;2.50;;;0.50;;
68273;SDS011;55104;47.356;19.448;2023-05-18T06:07:37;0.97;;;0.30;;
68273;SDS011;55104;47.356;19.448;2023-05-18T06:10:39;1.02;;;0.20;;
68273;SDS011;55104;47.356;19.448;2023-05-18T06:13:43;0.90;;;0.28;;
68273;SDS011;55104;47.356;19.448;2023-05-18T06:16:46;0.88;;;0.30;;
68273;SDS011;55104;47.356;19.448;2023-05-18T06:19:48;0.68;;;0.20;;
68273;SDS011;55104;47.356;19.448;2023-05-18T06:22:51;1.23;;;0.30;;
68273;SDS011;55104;47.356;19.448;2023-05-18T06:26:03;0.77;;;0.20;;
68273;SDS011;55104;47.356;19.448;2023-05-18T06:29:11;1.58;;;0.22;;
68273;SDS011;55104;47.356;19.448;2023-05-18T06:32:32;1.33;;;0.20;;
68273;SDS011;55104;47.356;19.448;2023-05-18T06:35:34;2.90;;;0.32;;
68273;SDS011;55104;47.356;19.448;2023-05-18T06:38:36;1.93;;;0.33;;
68273;SDS011;55104;47.356;19.448;2023-05-18T06:41:41;1.20;;;0.28;;
68273;SDS011;55104;47.356;19.448;2023-05-18T06:44:44;1.35;;;0.35;;
68273;SDS011;55104;47.356;19.448;2023-05-18T06:47:52;1.30;;;0.20;;
68273;SDS011;55104;47.356;19.448;2023-05-18T06:50:54;1.23;;;0.20;;
68273;SDS011;55104;47.356;19.448;2023-05-18T06:53:56;2.58;;;0.30;;
68273;SDS011;55104;47.356;19.448;2023-05-18T06:56:59;1.42;;;0.30;;
68273;SDS011;55104;47.356;19.448;2023-05-18T07:00:02;0.73;;;0.20;;
68273;SDS011;55104;47.356;19.448;2023-05-18T07:03:07;0.63;;;0.20;;
68273;SDS011;55104;47.356;19.448;2023-05-18T07:06:10;2.03;;;0.33;;
68273;SDS011;55104;47.356;19.448;2023-05-18T07:09:12;1.27;;;0.20;;
68273;SDS011;55104;47.356;19.448;2023-05-18T07:12:14;0.52;;;0.20;;
68273;SDS011;55104;47.356;19.448;2023-05-18T07:15:16;2.03;;;0.40;;
68273;SDS011;55104;47.356;19.448;2023-05-18T07:18:18;0.88;;;0.20;;
68273;SDS011;55104;47.356;19.448;2023-05-18T07:21:20;1.35;;;0.30;;
68273;SDS011;55104;47.356;19.448;2023-05-18T07:24:22;0.88;;;0.20;;
68273;SDS011;55104;47.356;19.448;2023-05-18T07:27:24;1.23;;;0.20;;
68273;SDS011;55104;47.356;19.448;2023-05-18T07:30:27;0.95;;;0.28;;
68273;SDS011;55104;47.356;19.448;2023-05-18T07:33:29;0.90;;;0.20;;
68273;SDS011;55104;47.356;19.448;2023-05-18T07:36:31;0.40;;;0.10;;
68273;SDS011;55104;47.356;19.448;2023-05-18T07:39:33;1.27;;;0.30;;
68273;SDS011;55104;47.356;19.448;2023-05-18T07:42:37;0.93;;;0.32;;
68273;SDS011;55104;47.356;19.448;2023-05-18T07:45:39;0.65;;;0.10;;
68273;SDS011;55104;47.356;19.448;2023-05-18T07:48:41;0.53;;;0.20;;
68273;SDS011;55104;47.356;19.448;2023-05-18T07:51:44;1.08;;;0.20;;
68273;SDS011;55104;47.356;19.448;2023-05-18T07:54:46;0.98;;;0.20;;
68273;SDS011;55104;47.356;19.448;2023-05-18T07:57:48;1.80;;;0.22;;
68273;SDS011;55104;47.356;19.448;2023-05-18T08:00:50;1.20;;;0.20;;
68273;SDS011;55104;47.356;19.448;2023-05-18T08:03:55;1.50;;;0.30;;
68273;SDS011;55104;47.356;19.448;2023-05-18T08:06:57;2.53;;;0.38;;
68273;SDS011;55104;47.356;19.448;2023-05-18T08:10:01;1.23;;;0.30;;
68273;SDS011;55104;47.356;19.448;2023-05-18T08:13:03;1.35;;;0.50;;
68273;SDS011;55104;47.356;19.448;2023-05-18T08:16:05;0.95;;;0.28;;
68273;SDS011;55104;47.356;19.448;2023-05-18T08:19:13;3.03;;;0.67;;
68273;SDS011;55104;47.356;19.448;2023-05-18T08:22:15;6.70;;;1.90;;
68273;SDS011;55104;47.356;19.448;2023-05-18T08:25:17;2.55;;;0.70;;
68273;SDS011;55104;47.356;19.448;2023-05-18T08:28:19;2.05;;;0.38;;
68273;SDS011;55104;47.356;19.448;2023-05-18T08:31:21;3.55;;;0.80;;
68273;SDS011;55104;47.356;19.448;2023-05-18T08:34:23;3.27;;;0.83;;
68273;SDS011;55104;47.356;19.448;2023-05-18T08:37:25;2.08;;;0.50;;
68273;SDS011;55104;47.356;19.448;2023-05-18T08:40:41;1.67;;;0.40;;
68273;SDS011;55104;47.356;19.448;2023-05-18T08:43:50;1.75;;;0.45;;
68273;SDS011;55104;47.356;19.448;2023-05-18T08:46:59;2.03;;;0.60;;
68273;SDS011;55104;47.356;19.448;2023-05-18T08:50:01;1.17;;;0.30;;
68273;SDS011;55104;47.356;19.448;2023-05-18T08:53:05;1.88;;;0.50;;
68273;SDS011;55104;47.356;19.448;2023-05-18T08:56:07;2.58;;;0.40;;
68273;SDS011;55104;47.356;19.448;2023-05-18T08:59:11;1.98;;;0.40;;
68273;SDS011;55104;47.356;19.448;2023-05-18T09:02:16;1.30;;;0.30;;
68273;SDS011;55104;47.356;19.448;2023-05-18T09:05:19;1.07;;;0.30;;
68273;SDS011;55104;47.356;19.448;2023-05-18T09:08:23;1.20;;;0.30;;
68273;SDS011;55104;47.356;19.448;2023-05-18T09:11:26;0.80;;;0.30;;
68273;SDS011;55104;47.356;19.448;2023-05-18T09:14:28;4.57;;;0.40;;
68273;SDS011;55104;47.356;19.448;2023-05-18T09:17:32;1.52;;;0.32;;
68273;SDS011;55104;47.356;19.448;2023-05-18T09:20:34;1.63;;;0.30;;
68273;SDS011;55104;47.356;19.448;2023-05-18T09:23:37;2.13;;;0.45;;
68273;SDS011;55104;47.356;19.448;2023-05-18T09:26:40;2.03;;;0.70;;
68273;SDS011;55104;47.356;19.448;2023-05-18T09:29:52;1.45;;;0.40;;
68273;SDS011;55104;47.356;19.448;2023-05-18T09:32:55;2.13;;;0.60;;
68273;SDS011;55104;47.356;19.448;2023-05-18T09:35:57;1.93;;;0.60;;
68273;SDS011;55104;47.356;19.448;2023-05-18T09:38:59;2.22;;;0.40;;
68273;SDS011;55104;47.356;19.448;2023-05-18T09:42:08;2.33;;;0.50;;
68273;SDS011;55104;47.356;19.448;2023-05-18T09:45:19;2.63;;;0.60;;
68273;SDS011;55104;47.356;19.448;2023-05-18T09:48:24;1.83;;;0.63;;
68273;SDS011;55104;47.356;19.448;2023-05-18T09:51:27;2.07;;;0.60;;
68273;SDS011;55104;47.356;19.448;2023-05-18T09:54:30;4.28;;;0.75;;
68273;SDS011;55104;47.356;19.448;2023-05-18T09:57:32;4.25;;;0.90;;
68273;SDS011;55104;47.356;19.448;2023-05-18T10:00:50;2.53;;;0.60;;
68273;SDS011;55104;47.356;19.448;2023-05-18T10:03:54;2.42;;;0.60;;
68273;SDS011;55104;47.356;19.448;2023-05-18T10:07:22;1.87;;;0.50;;
68273;SDS011;55104;47.356;19.448;2023-05-18T10:10:25;2.75;;;0.75;;
68273;SDS011;55104;47.356;19.448;2023-05-18T10:13:30;3.00;;;0.80;;
68273;SDS011;55104;47.356;19.448;2023-05-18T10:16:33;3.40;;;0.63;;
68273;SDS011;55104;47.356;19.448;2023-05-18T10:19:36;2.63;;;0.65;;
68273;SDS011;55104;47.356;19.448;2023-05-18T10:22:40;2.50;;;0.70;;
68273;SDS011;55104;47.356;19.448;2023-05-18T10:25:43;3.13;;;0.82;;
68273;SDS011;55104;47.356;19.448;2023-05-18T10:28:48;4.63;;;0.70;;
68273;SDS011;55104;47.356;19.448;2023-05-18T10:31:51;1.90;;;0.47;;
68273;SDS011;55104;47.356;19.448;2023-05-18T10:34:55;2.70;;;0.60;;
68273;SDS011;55104;47.356;19.448;2023-05-18T10:37:58;1.93;;;0.60;;
68273;SDS011;55104;47.356;19.448;2023-05-18T10:41:02;2.75;;;0.52;;
68273;SDS011;55104;47.356;19.448;2023-05-18T10:44:06;3.08;;;0.70;;
68273;SDS011;55104;47.356;19.448;2023-05-18T10:47:08;2.35;;;0.60;;
68273;SDS011;55104;47.356;19.448;2023-05-18T10:50:13;2.25;;;0.60;;
68273;SDS011;55104;47.356;19.448;2023-05-18T10:53:17;1.97;;;0.50;;
68273;SDS011;55104;47.356;19.448;2023-05-18T10:56:20;2.22;;;0.60;;
68273;SDS011;55104;47.356;19.448;2023-05-18T10:59:24;2.45;;;0.60;;
68273;SDS011;55104;47.356;19.448;2023-05-18T11:02:28;1.92;;;0.50;;
68273;SDS011;55104;47.356;19.448;2023-05-18T11:05:30;1.92;;;0.50;;
68273;SDS011;55104;47.356;19.448;2023-05-18T11:08:32;2.67;;;0.60;;
68273;SDS011;55104;47.356;19.448;2023-05-18T11:11:50;2.83;;;0.68;;
68273;SDS011;55104;47.356;19.448;2023-05-18T11:14:54;2.58;;;0.70;;
68273;SDS011;55104;47.356;19.448;2023-05-18T11:18:13;4.35;;;0.80;;
68273;SDS011;55104;47.356;19.448;2023-05-18T11:22:10;5.35;;;1.23;;
68273;SDS011;55104;47.356;19.448;2023-05-18T11:24:42;2.53;;;0.73;;
68273;SDS011;55104;47.356;19.448;2023-05-18T11:27:44;4.68;;;1.10;;
68273;SDS011;55104;47.356;19.448;2023-05-18T11:30:47;4.45;;;1.25;;
68273;SDS011;55104;47.356;19.448;2023-05-18T11:33:50;3.75;;;1.33;;
68273;SDS011;55104;47.356;19.448;2023-05-18T11:36:54;2.75;;;1.23;;
68273;SDS011;55104;47.356;19.448;2023-05-18T11:39:57;1.60;;;0.50;;
68273;SDS011;55104;47.356;19.448;2023-05-18T11:43:05;2.67;;;0.55;;
68273;SDS011;55104;47.356;19.448;2023-05-18T11:46:08;2.17;;;0.55;;
68273;SDS011;55104;47.356;19.448;2023-05-18T11:49:19;1.55;;;0.50;;
68273;SDS011;55104;47.356;19.448;2023-05-18T11:52:24;2.05;;;0.50;;
68273;SDS011;55104;47.356;19.448;2023-05-18T11:55:36;2.53;;;0.60;;
68273;SDS011;55104;47.356;19.448;2023-05-18T11:58:41;3.42;;;0.70;;
68273;SDS011;55104;47.356;19.448;2023-05-18T12:01:43;2.88;;;1.00;;
68273;SDS011;55104;47.356;19.448;2023-05-18T12:04:54;3.88;;;1.17;;
68273;SDS011;55104;47.356;19.448;2023-05-18T12:07:59;4.47;;;1.20;;
68273;SDS011;55104;47.356;19.448;2023-05-18T12:11:01;3.53;;;0.93;;
68273;SDS011;55104;47.356;19.448;2023-05-18T12:14:03;4.57;;;1.25;;
68273;SDS011;55104;47.356;19.448;2023-05-18T12:17:06;3.38;;;1.08;;
68273;SDS011;55104;47.356;19.448;2023-05-18T12:20:10;4.20;;;1.20;;
68273;SDS011;55104;47.356;19.448;2023-05-18T12:23:13;3.20;;;0.90;;
68273;SDS011;55104;47.356;19.448;2023-05-18T12:26:15;3.67;;;1.00;;
68273;SDS011;55104;47.356;19.448;2023-05-18T12:29:20;3.70;;;1.10;;
68273;SDS011;55104;47.356;19.448;2023-05-18T12:32:23;4.03;;;1.13;;
68273;SDS011;55104;47.356;19.448;2023-05-18T12:35:26;3.92;;;1.05;;
68273;SDS011;55104;47.356;19.448;2023-05-18T12:38:29;3.95;;;1.17;;
68273;SDS011;55104;47.356;19.448;2023-05-18T12:41:33;5.10;;;1.10;;
68273;SDS011;55104;47.356;19.448;2023-05-18T12:44:35;2.97;;;0.80;;
68273;SDS011;55104;47.356;19.448;2023-05-18T12:47:39;3.40;;;0.93;;
68273;SDS011;55104;47.356;19.448;2023-05-18T12:50:46;2.83;;;0.77;;
68273;SDS011;55104;47.356;19.448;2023-05-18T12:53:49;3.17;;;0.80;;
68273;SDS011;55104;47.356;19.448;2023-05-18T12:56:51;6.43;;;1.77;;
68273;SDS011;55104;47.356;19.448;2023-05-18T13:00:03;2.10;;;0.60;;
68273;SDS011;55104;47.356;19.448;2023-05-18T13:03:11;2.88;;;0.90;;
68273;SDS011;55104;47.356;19.448;2023-05-18T13:06:17;3.90;;;1.00;;
68273;SDS011;55104;47.356;19.448;2023-05-18T13:09:19;2.85;;;0.70;;
68273;SDS011;55104;47.356;19.448;2023-05-18T13:15:49;2.92;;;0.80;;
68273;SDS011;55104;47.356;19.448;2023-05-18T13:18:58;4.57;;;1.20;;
68273;SDS011;55104;47.356;19.448;2023-05-18T13:22:02;3.85;;;1.20;;
68273;SDS011;55104;47.356;19.448;2023-05-18T13:25:05;4.40;;;1.30;;
68273;SDS011;55104;47.356;19.448;2023-05-18T13:28:10;5.43;;;1.50;;
68273;SDS011;55104;47.356;19.448;2023-05-18T13:31:13;4.70;;;1.30;;
68273;SDS011;55104;47.356;19.448;2023-05-18T13:34:15;5.05;;;1.42;;
68273;SDS011;55104;47.356;19.448;2023-05-18T13:37:18;4.25;;;1.15;;
68273;SDS011;55104;47.356;19.448;2023-05-18T13:40:20;2.67;;;0.60;;
68273;SDS011;55104;47.356;19.448;2023-05-18T13:43:25;1.90;;;0.50;;
68273;SDS011;55104;47.356;19.448;2023-05-18T13:46:27;3.78;;;0.65;;
68273;SDS011;55104;47.356;19.448;2023-05-18T13:49:29;2.00;;;0.55;;
68273;SDS011;55104;47.356;19.448;2023-05-18T13:52:32;1.98;;;0.50;;
68273;SDS011;55104;47.356;19.448;2023-05-18T13:55:35;2.35;;;0.57;;
68273;SDS011;55104;47.356;19.448;2023-05-18T13:58:37;4.17;;;0.50;;
68273;SDS011;55104;47.356;19.448;2023-05-18T14:01:39;3.10;;;0.80;;
68273;SDS011;55104;47.356;19.448;2023-05-18T14:04:43;5.68;;;0.60;;
68273;SDS011;55104;47.356;19.448;2023-05-18T14:07:45;3.65;;;0.90;;
68273;SDS011;55104;47.356;19.448;2023-05-18T14:10:47;3.28;;;0.82;;
68273;SDS011;55104;47.356;19.448;2023-05-18T14:13:49;4.07;;;1.07;;
68273;SDS011;55104;47.356;19.448;2023-05-18T14:16:51;6.13;;;0.88;;
68273;SDS011;55104;47.356;19.448;2023-05-18T14:19:53;2.30;;;0.65;;
68273;SDS011;55104;47.356;19.448;2023-05-18T14:22:55;4.72;;;0.80;;
68273;SDS011;55104;47.356;19.448;2023-05-18T14:25:57;3.50;;;0.90;;
68273;SDS011;55104;47.356;19.448;2023-05-18T14:28:59;4.40;;;1.20;;
68273;SDS011;55104;47.356;19.448;2023-05-18T14:32:01;5.05;;;1.52;;
68273;SDS011;55104;47.356;19.448;2023-05-18T14:35:03;5.88;;;1.73;;
68273;SDS011;55104;47.356;19.448;2023-05-18T14:38:06;4.15;;;1.33;;
68273;SDS011;55104;47.356;19.448;2023-05-18T14:41:08;2.88;;;0.80;;
68273;SDS011;55104;47.356;19.448;2023-05-18T14:44:10;3.53;;;1.07;;
68273;SDS011;55104;47.356;19.448;2023-05-18T14:47:14;5.20;;;1.88;;
68273;SDS011;55104;47.356;19.448;2023-05-18T14:50:16;4.78;;;1.40;;
68273;SDS011;55104;47.356;19.448;2023-05-18T14:53:18;3.63;;;1.00;;
68273;SDS011;55104;47.356;19.448;2023-05-18T14:56:20;2.42;;;0.70;;
68273;SDS011;55104;47.356;19.448;2023-05-18T14:59:22;4.37;;;0.70;;
68273;SDS011;55104;47.356;19.448;2023-05-18T15:02:24;3.28;;;0.77;;
68273;SDS011;55104;47.356;19.448;2023-05-18T15:05:26;1.77;;;0.40;;
68273;SDS011;55104;47.356;19.448;2023-05-18T15:08:28;3.03;;;0.70;;
68273;SDS011;55104;47.356;19.448;2023-05-18T15:11:30;2.38;;;0.52;;
68273;SDS011;55104;47.356;19.448;2023-05-18T15:14:32;2.77;;;0.53;;
68273;SDS011;55104;47.356;19.448;2023-05-18T15:17:34;3.60;;;0.70;;
68273;SDS011;55104;47.356;19.448;2023-05-18T15:20:37;4.53;;;1.00;;
68273;SDS011;55104;47.356;19.448;2023-05-18T15:23:45;3.60;;;1.10;;
68273;SDS011;55104;47.356;19.448;2023-05-18T15:26:47;3.38;;;0.85;;
68273;SDS011;55104;47.356;19.448;2023-05-18T15:29:49;5.47;;;1.30;;
68273;SDS011;55104;47.356;19.448;2023-05-18T15:32:51;5.63;;;1.95;;
68273;SDS011;55104;47.356;19.448;2023-05-18T15:35:53;4.85;;;1.25;;
68273;SDS011;55104;47.356;19.448;2023-05-18T15:38:56;4.63;;;1.27;;
68273;SDS011;55104;47.356;19.448;2023-05-18T15:41:58;5.25;;;1.58;;
68273;SDS011;55104;47.356;19.448;2023-05-18T15:45:00;6.37;;;2.10;;
68273;SDS011;55104;47.356;19.448;2023-05-18T15:48:03;8.55;;;3.60;;
68273;SDS011;55104;47.356;19.448;2023-05-18T15:51:05;9.80;;;4.05;;
68273;SDS011;55104;47.356;19.448;2023-05-18T15:54:08;13.77;;;5.20;;
68273;SDS011;55104;47.356;19.448;2023-05-18T15:57:10;8.55;;;3.55;;
68273;SDS011;55104;47.356;19.448;2023-05-18T16:00:12;6.13;;;2.27;;
68273;SDS011;55104;47.356;19.448;2023-05-18T16:03:15;4.03;;;1.20;;
68273;SDS011;55104;47.356;19.448;2023-05-18T16:06:18;4.10;;;1.30;;
68273;SDS011;55104;47.356;19.448;2023-05-18T16:09:20;3.65;;;0.90;;
68273;SDS011;55104;47.356;19.448;2023-05-18T16:12:22;3.78;;;1.00;;
68273;SDS011;55104;47.356;19.448;2023-05-18T16:15:25;4.57;;;1.00;;
68273;SDS011;55104;47.356;19.448;2023-05-18T16:18:27;6.57;;;1.02;;
68273;SDS011;55104;47.356;19.448;2023-05-18T16:21:29;3.30;;;0.93;;
68273;SDS011;55104;47.356;19.448;2023-05-18T16:24:32;3.90;;;0.98;;
68273;SDS011;55104;47.356;19.448;2023-05-18T16:27:34;3.95;;;0.90;;
68273;SDS011;55104;47.356;19.448;2023-05-18T16:30:36;5.57;;;1.73;;
68273;SDS011;55104;47.356;19.448;2023-05-18T16:33:38;3.08;;;0.88;;
68273;SDS011;55104;47.356;19.448;2023-05-18T16:36:41;5.00;;;1.35;;
68273;SDS011;55104;47.356;19.448;2023-05-18T16:39:43;7.07;;;1.30;;
68273;SDS011;55104;47.356;19.448;2023-05-18T16:42:45;6.07;;;2.10;;
68273;SDS011;55104;47.356;19.448;2023-05-18T16:45:49;7.63;;;2.10;;
68273;SDS011;55104;47.356;19.448;2023-05-18T16:48:51;4.47;;;1.08;;
68273;SDS011;55104;47.356;19.448;2023-05-18T16:51:53;4.30;;;0.90;;
68273;SDS011;55104;47.356;19.448;2023-05-18T16:54:55;7.00;;;1.30;;
68273;SDS011;55104;47.356;19.448;2023-05-18T16:57:57;5.72;;;1.17;;
68273;SDS011;55104;47.356;19.448;2023-05-18T17:00:59;6.50;;;2.60;;
68273;SDS011;55104;47.356;19.448;2023-05-18T17:04:02;7.72;;;3.45;;
68273;SDS011;55104;47.356;19.448;2023-05-18T17:07:04;9.57;;;4.10;;
68273;SDS011;55104;47.356;19.448;2023-05-18T17:10:07;8.25;;;2.45;;
68273;SDS011;55104;47.356;19.448;2023-05-18T17:13:09;4.47;;;1.30;;
68273;SDS011;55104;47.356;19.448;2023-05-18T17:16:11;4.10;;;1.20;;
68273;SDS011;55104;47.356;19.448;2023-05-18T17:19:14;8.68;;;3.70;;
68273;SDS011;55104;47.356;19.448;2023-05-18T17:22:17;8.52;;;4.53;;
68273;SDS011;55104;47.356;19.448;2023-05-18T17:25:19;5.32;;;1.98;;
68273;SDS011;55104;47.356;19.448;2023-05-18T17:28:21;4.50;;;1.58;;
68273;SDS011;55104;47.356;19.448;2023-05-18T17:31:23;5.33;;;1.47;;
68273;SDS011;55104;47.356;19.448;2023-05-18T17:34:25;4.28;;;1.08;;
68273;SDS011;55104;47.356;19.448;2023-05-18T17:37:27;3.80;;;1.10;;
68273;SDS011;55104;47.356;19.448;2023-05-18T17:40:30;3.72;;;0.95;;
68273;SDS011;55104;47.356;19.448;2023-05-18T17:43:32;4.25;;;1.00;;
68273;SDS011;55104;47.356;19.448;2023-05-18T17:46:34;3.87;;;1.00;;
68273;SDS011;55104;47.356;19.448;2023-05-18T17:49:37;4.78;;;0.90;;
68273;SDS011;55104;47.356;19.448;2023-05-18T17:52:39;4.65;;;1.00;;
68273;SDS011;55104;47.356;19.448;2023-05-18T17:55:41;4.88;;;1.10;;
68273;SDS011;55104;47.356;19.448;2023-05-18T17:58:43;3.97;;;1.10;;
68273;SDS011;55104;47.356;19.448;2023-05-18T18:01:46;4.53;;;1.13;;
68273;SDS011;55104;47.356;19.448;2023-05-18T18:04:48;6.88;;;1.48;;
68273;SDS011;55104;47.356;19.448;2023-05-18T18:07:51;4.30;;;1.35;;
68273;SDS011;55104;47.356;19.448;2023-05-18T18:10:55;4.85;;;1.27;;
68273;SDS011;55104;47.356;19.448;2023-05-18T18:13:57;5.85;;;1.48;;
68273;SDS011;55104;47.356;19.448;2023-05-18T18:17:00;10.30;;;4.60;;
68273;SDS011;55104;47.356;19.448;2023-05-18T18:20:03;12.85;;;5.25;;
68273;SDS011;55104;47.356;19.448;2023-05-18T18:23:06;12.73;;;5.75;;